Time Latitude Longitude Accuracy (66% radius in meters) Altitude (meters) Speed (km/hour) Bearing (degrees) Battery (%) GPS flag
09:58:03 55.737892 37.299015 5 175 0 181.93154907227 75 1 delete
09:57:50 55.737894 37.299015 10 172 0 222.94209289551 75 1 delete
09:57:38 55.737896 37.299018 5 175 0.095356680452824 135.28530883789 75 1 delete
09:57:25 55.737891 37.299005 5 173 0.39231452345848 198.83140563965 75 1 delete
09:57:13 55.737894 37.299018 5 167 0 177.94549560547 75 1 delete
09:57:00 55.737894 37.299018 5 170 0 177.94549560547 75 1 delete
09:56:48 55.737894 37.299018 5 171 0 177.94549560547 75 1 delete
09:56:35 55.737894 37.299018 5 176 0 177.94549560547 75 1 delete
09:56:22 55.737894 37.299018 5 171 0 177.94549560547 75 1 delete
09:56:10 55.737894 37.299018 5 170 0 177.94549560547 75 1 delete
09:55:57 55.737894 37.299018 5 177 0 177.94549560547 75 1 delete
09:55:44 55.737895 37.299020 5 172 0 208.16928100586 75 1 delete
09:55:31 55.737896 37.299021 5 172 0 208.16928100586 75 1 delete
09:55:18 55.737896 37.299021 5 174 0 208.16928100586 75 1 delete
09:55:06 55.737900 37.299024 5 173 0 18.190673828125 75 1 delete
09:54:53 55.737900 37.299024 5 166 0 18.190673828125 75 1 delete
09:54:40 55.737900 37.299024 5 173 0 18.190673828125 75 1 delete
09:54:27 55.737900 37.299024 5 171 0 18.190673828125 75 1 delete
09:54:12 55.737900 37.299024 5 166 0 18.190673828125 75 1 delete
09:53:59 55.737900 37.299024 5 166 0 18.190673828125 75 1 delete
09:53:45 55.737899 37.299023 5 175 0 211.21333312988 75 1 delete
09:53:32 55.737902 37.299027 5 173 0 196.23780822754 75 1 delete
09:53:19 55.737902 37.299027 5 176 0 196.23780822754 75 1 delete
09:53:05 55.737906 37.299029 5 172 0 216.59223937988 75 1 delete
09:52:53 55.737906 37.299029 5 174 0 216.59223937988 75 1 delete
09:52:40 55.737906 37.299029 10 171 0 216.59223937988 75 1 delete
09:52:27 55.737906 37.299029 10 174 0 216.59223937988 75 1 delete
09:52:14 55.737909 37.299033 5 175 0 209.18299865723 75 1 delete
09:52:02 55.737911 37.299035 5 174 0 23.557933807373 75 1 delete
09:51:50 55.737911 37.299035 5 175 0 23.557933807373 75 1 delete
09:51:37 55.737911 37.299035 5 173 0 23.557933807373 75 1 delete
09:51:25 55.737911 37.299035 5 171 0 23.557933807373 75 1 delete
09:51:13 55.737913 37.299036 5 170 0 23.557933807373 75 1 delete
09:51:00 55.737913 37.299036 5 174 0 23.557933807373 75 1 delete
09:50:48 55.737912 37.299036 5 171 0 14.746554374695 75 1 delete
09:50:35 55.737912 37.299036 5 169 0 14.746554374695 75 1 delete
09:50:23 55.737912 37.299036 5 177 0 14.746554374695 75 1 delete
09:50:11 55.737912 37.299036 5 173 0 14.746554374695 75 1 delete
09:49:58 55.737912 37.299036 5 168 0 14.746554374695 75 1 delete
09:49:45 55.737912 37.299036 5 169 0 14.746554374695 75 1 delete
09:49:32 55.737912 37.299036 5 173 0 14.746554374695 75 1 delete
09:49:19 55.737912 37.299036 5 173 0 14.746554374695 75 1 delete
09:49:06 55.737912 37.299036 5 171 0 14.746554374695 75 1 delete
09:48:54 55.737912 37.299036 5 174 0 14.746554374695 75 1 delete
09:48:41 55.737912 37.299036 5 172 0 14.746554374695 75 1 delete
09:48:26 55.737912 37.299036 5 173 0 14.746554374695 75 1 delete
09:48:14 55.737912 37.299036 5 175 0 14.746554374695 75 1 delete
09:47:57 55.737912 37.299036 5 175 0 14.746554374695 75 1 delete
09:47:45 55.737912 37.299036 5 176 0 14.746554374695 75 1 delete
09:47:30 55.737912 37.299036 5 174 0 14.746554374695 75 1 delete